Time;durP1;ratioP1;P1;durP2;ratioP2;P2;SDS_P1;SDS_P2;PMS_P1;PMS_P2;Temp;Humidity;BMP_temperature;BMP_pressure;BME280_temperature;BME280_humidity;BME280_pressure;Samples;Min_cycle;Max_cycle;Signal;HPM_P1;HPM_P2
2023/04/25 00:00:59;;;;;;;1.45;1.35;;;16.30;51.90;;;;;;5064838;28;46837;-64
2023/04/25 00:03:26;;;;;;;2.28;1.70;;;16.40;52.00;;;;;;5065073;28;45325;-64
2023/04/25 00:05:53;;;;;;;2.40;1.70;;;16.40;52.00;;;;;;5065289;28;45341;-64
2023/04/25 00:08:20;;;;;;;1.70;1.60;;;16.30;51.90;;;;;;5065336;28;45396;-65
2023/04/25 00:10:48;;;;;;;2.25;1.55;;;16.30;51.90;;;;;;5064777;28;45284;-64
2023/04/25 00:13:17;;;;;;;2.25;1.60;;;16.30;52.10;;;;;;5065038;28;45353;-64
2023/04/25 00:15:44;;;;;;;2.15;1.58;;;16.30;52.00;;;;;;5065157;28;45455;-64
2023/04/25 00:18:11;;;;;;;1.73;1.55;;;16.30;52.00;;;;;;5065360;28;45493;-65
2023/04/25 00:20:37;;;;;;;2.63;1.67;;;16.30;52.10;;;;;;5064759;28;46390;-64
2023/04/25 00:23:06;;;;;;;1.50;1.40;;;16.30;52.00;;;;;;5064987;28;45203;-64
2023/04/25 00:25:33;;;;;;;1.60;1.50;;;16.30;52.10;;;;;;5065018;28;45467;-64
2023/04/25 00:28:01;;;;;;;1.40;1.30;;;16.30;52.00;;;;;;5064948;28;45446;-64
2023/04/25 00:30:27;;;;;;;1.67;1.40;;;16.30;52.00;;;;;;5062035;28;46662;-64
2023/04/25 00:32:54;;;;;;;1.58;1.48;;;16.30;52.00;;;;;;5064830;28;45250;-64
2023/04/25 00:35:21;;;;;;;2.10;1.40;;;16.30;52.00;;;;;;5065138;28;45412;-64
2023/04/25 00:37:48;;;;;;;1.40;1.30;;;16.20;52.00;;;;;;5065026;28;45530;-64
2023/04/25 00:40:14;;;;;;;2.13;1.58;;;16.20;52.20;;;;;;5064581;28;45390;-64
2023/04/25 00:42:42;;;;;;;1.40;1.30;;;16.20;52.20;;;;;;5064644;28;45332;-64
2023/04/25 00:45:10;;;;;;;1.83;1.38;;;16.30;52.10;;;;;;5064786;28;45349;-64
2023/04/25 00:47:40;;;;;;;1.50;1.40;;;16.30;52.20;;;;;;5065879;28;45405;-64
2023/04/25 00:50:08;;;;;;;1.77;1.60;;;16.20;52.00;;;;;;5068184;28;47556;-64
2023/04/25 00:52:35;;;;;;;1.83;1.55;;;16.30;52.10;;;;;;5067980;28;45317;-64
2023/04/25 00:55:01;;;;;;;2.00;1.50;;;16.20;52.00;;;;;;5068246;28;45501;-64
2023/04/25 00:57:29;;;;;;;2.45;1.52;;;16.20;52.10;;;;;;5068302;28;45507;-64
2023/04/25 00:59:56;;;;;;;1.77;1.35;;;16.20;52.10;;;;;;5067738;28;45464;-65
2023/04/25 01:02:25;;;;;;;1.50;1.40;;;16.20;52.20;;;;;;5067806;28;45306;-64
2023/04/25 01:04:52;;;;;;;1.70;1.55;;;16.20;52.70;;;;;;5068146;28;45428;-64
2023/04/25 01:07:22;;;;;;;1.63;1.52;;;16.20;52.10;;;;;;5068216;28;45509;-64
2023/04/25 01:09:49;;;;;;;2.10;1.50;;;16.10;52.10;;;;;;5067707;28;47417;-64
2023/04/25 01:12:15;;;;;;;1.83;1.40;;;16.10;52.20;;;;;;5067731;28;45338;-64
2023/04/25 01:14:42;;;;;;;1.40;1.27;;;16.10;52.30;;;;;;5068275;28;45315;-65
2023/04/25 01:17:09;;;;;;;1.83;1.40;;;16.10;52.10;;;;;;5068072;28;45408;-65
2023/04/25 01:19:37;;;;;;;1.33;1.23;;;16.10;52.20;;;;;;5067588;28;46479;-64
2023/04/25 01:22:06;;;;;;;1.77;1.15;;;16.10;52.20;;;;;;5067604;28;45297;-64
2023/04/25 01:24:33;;;;;;;1.58;1.33;;;16.10;52.30;;;;;;5067983;28;45392;-64
2023/04/25 01:27:00;;;;;;;1.52;1.42;;;16.10;52.20;;;;;;5067566;28;45459;-65
2023/04/25 01:29:27;;;;;;;1.27;1.10;;;16.10;52.90;;;;;;5067226;28;46329;-65
2023/04/25 01:31:55;;;;;;;2.22;1.40;;;16.10;52.30;;;;;;5067396;28;45317;-65
2023/04/25 01:34:22;;;;;;;1.95;1.40;;;16.10;52.30;;;;;;5067627;28;45314;-65
2023/04/25 01:36:49;;;;;;;1.42;1.33;;;16.10;52.30;;;;;;5067756;28;45304;-65
2023/04/25 01:39:17;;;;;;;1.58;1.40;;;16.00;52.20;;;;;;5067325;28;46392;-65
2023/04/25 01:41:44;;;;;;;1.63;1.40;;;16.00;52.20;;;;;;5067227;28;45325;-64
2023/04/25 01:44:11;;;;;;;1.20;1.10;;;16.00;52.20;;;;;;5067417;28;45294;-64
2023/04/25 01:46:38;;;;;;;1.63;1.48;;;16.00;52.20;;;;;;5067631;28;45472;-65
2023/04/25 01:49:05;;;;;;;1.40;1.30;;;16.00;52.30;;;;;;5067080;28;45533;-65
2023/04/25 01:51:31;;;;;;;1.55;1.33;;;16.00;52.40;;;;;;5067085;28;45449;-65
2023/04/25 01:53:58;;;;;;;1.15;1.05;;;16.00;52.40;;;;;;5067367;28;45211;-65
2023/04/25 01:56:30;;;;;;;1.50;1.40;;;16.00;52.40;;;;;;5067507;28;45463;-65
2023/04/25 01:58:59;;;;;;;1.42;1.23;;;16.00;52.30;;;;;;5066435;28;45282;-65
2023/04/25 02:01:26;;;;;;;2.42;1.40;;;15.90;52.30;;;;;;5066899;28;45317;-65
2023/04/25 02:03:53;;;;;;;1.40;1.30;;;15.90;52.40;;;;;;5067267;28;45481;-65
2023/04/25 02:06:19;;;;;;;3.08;1.42;;;15.90;52.30;;;;;;5067475;28;45352;-65
2023/04/25 02:08:46;;;;;;;1.50;1.30;;;15.90;52.40;;;;;;5066760;28;46275;-65
2023/04/25 02:11:13;;;;;;;1.73;1.30;;;15.90;52.30;;;;;;5066793;28;45136;-65
2023/04/25 02:13:41;;;;;;;1.27;1.17;;;15.90;52.40;;;;;;5067052;28;45326;-64
2023/04/25 02:16:08;;;;;;;1.80;1.17;;;15.90;52.30;;;;;;5067403;28;45349;-65
2023/04/25 02:18:36;;;;;;;1.30;1.17;;;15.90;52.40;;;;;;5066868;28;45362;-65
2023/04/25 02:21:03;;;;;;;2.50;1.20;;;15.90;52.40;;;;;;5066683;28;45278;-65
2023/04/25 02:23:30;;;;;;;1.50;1.40;;;15.90;52.40;;;;;;5066925;28;45335;-65
2023/04/25 02:25:57;;;;;;;1.85;1.17;;;15.90;52.40;;;;;;5067009;28;45594;-64
2023/04/25 02:28:25;;;;;;;1.25;1.15;;;15.80;52.40;;;;;;5066815;28;45418;-64
2023/04/25 02:30:53;;;;;;;1.30;1.10;;;15.90;52.40;;;;;;5066511;28;45476;-64
2023/04/25 02:33:20;;;;;;;1.30;1.20;;;15.80;52.40;;;;;;5066739;28;45162;-64
2023/04/25 02:35:47;;;;;;;1.52;1.15;;;15.80;52.40;;;;;;5066968;28;45235;-64
2023/04/25 02:38:14;;;;;;;1.40;1.25;;;15.80;52.40;;;;;;5066481;28;46818;-64
2023/04/25 02:40:41;;;;;;;2.75;1.60;;;15.80;53.00;;;;;;5066458;28;45434;-64
2023/04/25 02:43:08;;;;;;;2.08;1.45;;;15.80;52.40;;;;;;5066643;28;45377;-64
2023/04/25 02:45:35;;;;;;;1.40;1.10;;;15.80;52.40;;;;;;5066760;28;45404;-64
2023/04/25 02:48:04;;;;;;;1.27;1.17;;;15.80;52.40;;;;;;5066182;28;46634;-65
2023/04/25 02:50:31;;;;;;;1.27;1.17;;;15.80;52.40;;;;;;5066103;28;45308;-65
2023/04/25 02:52:58;;;;;;;1.30;1.20;;;15.80;52.40;;;;;;5066325;28;45274;-65
2023/04/25 02:55:25;;;;;;;1.90;1.33;;;15.80;52.40;;;;;;5066496;28;45231;-65
2023/04/25 02:57:55;;;;;;;2.00;1.23;;;15.80;52.40;;;;;;5066106;28;47518;-64
2023/04/25 03:00:22;;;;;;;1.50;1.40;;;15.80;52.40;;;;;;5066034;28;45254;-65
2023/04/25 03:02:49;;;;;;;1.27;1.05;;;15.80;52.40;;;;;;5066142;28;45281;-65
2023/04/25 03:05:17;;;;;;;2.08;1.30;;;15.70;52.40;;;;;;5066489;28;45194;-65
2023/04/25 03:07:45;;;;;;;2.53;1.58;;;15.80;52.50;;;;;;5065952;28;45481;-65
2023/04/25 03:10:12;;;;;;;2.25;1.20;;;15.70;52.40;;;;;;5064971;28;45363;-65
2023/04/25 03:12:38;;;;;;;1.20;1.05;;;15.70;52.40;;;;;;5066119;28;45147;-65
2023/04/25 03:15:06;;;;;;;1.48;1.00;;;15.70;52.40;;;;;;5066314;28;45266;-65
2023/04/25 03:17:33;;;;;;;1.30;1.02;;;15.70;52.40;;;;;;5065813;28;46391;-65
2023/04/25 03:20:00;;;;;;;1.48;1.38;;;15.70;52.40;;;;;;5065781;28;45401;-65
2023/04/25 03:22:28;;;;;;;1.27;1.20;;;15.70;52.40;;;;;;5065966;28;45393;-65
2023/04/25 03:24:55;;;;;;;1.75;1.30;;;15.70;52.50;;;;;;5066076;28;45240;-65
2023/04/25 03:27:23;;;;;;;1.40;1.30;;;15.70;52.50;;;;;;5065430;28;46422;-65
2023/04/25 03:29:49;;;;;;;1.20;1.10;;;15.70;52.50;;;;;;5065599;28;45409;-65
2023/04/25 03:32:16;;;;;;;1.30;1.20;;;15.70;52.50;;;;;;5065914;28;45308;-65
2023/04/25 03:34:43;;;;;;;1.20;1.10;;;15.70;52.50;;;;;;5066075;28;45268;-65
2023/04/25 03:37:10;;;;;;;1.50;1.30;;;15.70;52.50;;;;;;5065696;28;45254;-64
2023/04/25 03:39:38;;;;;;;1.40;1.30;;;15.70;52.40;;;;;;5065980;28;45261;-65
2023/04/25 03:42:05;;;;;;;3.35;1.27;;;15.70;52.50;;;;;;5065712;28;45309;-65
2023/04/25 03:44:32;;;;;;;1.48;1.05;;;15.70;52.50;;;;;;5065820;28;45414;-65
2023/04/25 03:46:59;;;;;;;1.10;1.10;;;15.60;52.40;;;;;;5065343;28;45495;-65
2023/04/25 03:49:26;;;;;;;1.50;1.20;;;15.60;52.50;;;;;;5065354;28;45100;-65
2023/04/25 03:51:52;;;;;;;1.55;1.10;;;15.60;52.40;;;;;;5065624;28;45315;-64
2023/04/25 03:54:22;;;;;;;1.35;1.25;;;15.60;52.50;;;;;;5066033;28;45472;-65
2023/04/25 03:56:50;;;;;;;1.95;1.52;;;15.60;52.50;;;;;;5065318;28;46658;-65
2023/04/25 03:59:17;;;;;;;1.45;1.10;;;15.60;52.50;;;;;;5065348;28;45286;-65
2023/04/25 04:01:44;;;;;;;1.45;1.30;;;15.60;52.50;;;;;;5065529;28;45372;-65
2023/04/25 04:04:11;;;;;;;1.40;1.30;;;15.60;52.50;;;;;;5065525;28;45416;-65
2023/04/25 04:06:38;;;;;;;1.13;1.05;;;15.60;52.50;;;;;;5065275;28;46387;-65
2023/04/25 04:09:06;;;;;;;1.10;1.00;;;15.60;52.50;;;;;;5065317;28;45138;-66
2023/04/25 04:11:33;;;;;;;1.50;1.00;;;15.60;52.50;;;;;;5065289;28;45293;-65
2023/04/25 04:14:01;;;;;;;1.70;1.27;;;15.60;52.50;;;;;;5066230;28;45419;-66
2023/04/25 04:16:28;;;;;;;3.05;1.27;;;15.50;52.40;;;;;;5065543;28;46377;-66
2023/04/25 04:18:55;;;;;;;1.20;1.10;;;15.50;52.50;;;;;;5065574;28;45231;-65
2023/04/25 04:21:21;;;;;;;1.20;1.10;;;15.50;52.40;;;;;;5066070;28;45201;-66
2023/04/25 04:23:48;;;;;;;1.27;1.17;;;15.50;52.50;;;;;;5069247;28;45220;-66
2023/04/25 04:26:16;;;;;;;1.33;1.10;;;15.50;52.50;;;;;;5068287;28;46372;-65
2023/04/25 04:28:43;;;;;;;1.23;1.13;;;15.50;52.50;;;;;;5068829;28;45476;-65
2023/04/25 04:31:11;;;;;;;1.27;1.20;;;15.50;52.50;;;;;;5069002;28;45312;-65
2023/04/25 04:33:38;;;;;;;1.40;1.30;;;15.50;52.50;;;;;;5069065;28;45177;-65
2023/04/25 04:36:07;;;;;;;1.27;1.17;;;15.50;53.10;;;;;;5068675;28;46501;-65
2023/04/25 04:38:34;;;;;;;1.73;1.20;;;15.50;52.50;;;;;;5068698;28;45330;-65
2023/04/25 04:41:01;;;;;;;1.60;1.35;;;15.50;52.50;;;;;;5068681;28;45234;-65
2023/04/25 04:43:29;;;;;;;1.35;1.25;;;15.50;52.50;;;;;;5069004;28;45305;-65
2023/04/25 04:45:56;;;;;;;1.40;1.20;;;15.40;52.50;;;;;;5068996;28;45597;-65
2023/04/25 04:48:25;;;;;;;1.05;0.90;;;15.40;52.50;;;;;;5068947;28;45313;-65
2023/04/25 04:50:52;;;;;;;1.40;1.30;;;15.40;52.60;;;;;;5068891;28;45378;-65
2023/04/25 04:53:18;;;;;;;1.30;1.05;;;15.40;52.50;;;;;;5069472;28;45244;-66
2023/04/25 04:55:46;;;;;;;1.20;1.10;;;15.40;52.60;;;;;;5069783;28;46401;-65
2023/04/25 04:58:12;;;;;;;1.30;1.20;;;15.40;52.60;;;;;;5068929;28;45401;-65
2023/04/25 05:00:40;;;;;;;1.52;1.20;;;15.40;52.60;;;;;;5068793;28;45394;-66
2023/04/25 05:03:07;;;;;;;1.60;1.10;;;15.40;52.60;;;;;;5069370;28;45369;-65
2023/04/25 05:05:35;;;;;;;2.70;1.27;;;15.40;52.50;;;;;;5068501;28;45470;-70
2023/04/25 05:08:01;;;;;;;1.30;1.20;;;15.40;52.60;;;;;;5068300;28;45241;-65
2023/04/25 05:10:28;;;;;;;1.95;1.23;;;15.40;52.60;;;;;;5068476;28;45305;-66
2023/04/25 05:12:55;;;;;;;1.38;1.10;;;15.40;52.60;;;;;;5068676;28;45358;-65
2023/04/25 05:15:22;;;;;;;2.17;1.33;;;15.40;52.60;;;;;;5068502;28;45367;-65
2023/04/25 05:17:49;;;;;;;1.27;1.10;;;15.30;52.60;;;;;;5068930;28;45240;-66
2023/04/25 05:20:16;;;;;;;2.08;1.00;;;15.40;52.60;;;;;;5069563;28;45262;-67
2023/04/25 05:22:44;;;;;;;1.30;1.20;;;15.40;52.60;;;;;;5070990;28;45301;-67
2023/04/25 05:25:11;;;;;;;1.73;1.25;;;15.40;52.60;;;;;;5072559;28;45463;-67
2023/04/25 05:27:37;;;;;;;1.85;1.20;;;15.40;53.30;;;;;;5075983;28;44655;-69
2023/04/25 05:30:05;;;;;;;1.30;1.20;;;15.40;52.70;;;;;;5080144;28;45186;-67
2023/04/25 05:32:32;;;;;;;1.17;1.10;;;15.30;52.70;;;;;;5081543;28;45327;-67
2023/04/25 05:34:59;;;;;;;2.22;1.17;;;15.30;52.70;;;;;;5081335;28;46690;-66
2023/04/25 05:37:26;;;;;;;1.50;1.40;;;15.30;52.70;;;;;;5080631;28;45279;-71
2023/04/25 05:39:54;;;;;;;1.33;1.20;;;15.30;52.80;;;;;;5079002;28;45183;-67
2023/04/25 05:42:21;;;;;;;1.77;1.20;;;15.30;52.80;;;;;;5076812;28;45514;-66
2023/04/25 05:44:48;;;;;;;1.23;1.15;;;15.30;52.80;;;;;;5077991;28;46558;-70
2023/04/25 05:47:15;;;;;;;1.98;1.20;;;15.30;52.80;;;;;;5074538;28;45321;-67
2023/04/25 05:49:41;;;;;;;1.42;1.20;;;15.30;52.80;;;;;;5074483;28;45330;-68
2023/04/25 05:52:08;;;;;;;2.38;1.17;;;15.30;52.80;;;;;;5074676;28;45472;-71
2023/04/25 05:54:35;;;;;;;0.82;0.82;;;15.30;52.90;;;;;;5074920;28;47175;-66
2023/04/25 05:57:03;;;;;;;1.30;1.20;;;15.30;52.90;;;;;;5075161;28;45254;-66
2023/04/25 05:59:30;;;;;;;1.40;1.23;;;15.30;53.00;;;;;;5074947;28;45329;-67
2023/04/25 06:01:57;;;;;;;1.10;1.00;;;15.20;52.90;;;;;;5074899;28;45194;-66
2023/04/25 06:04:24;;;;;;;1.20;1.10;;;15.20;52.90;;;;;;5074205;28;45723;-69
2023/04/25 06:06:50;;;;;;;0.90;0.90;;;15.20;52.90;;;;;;5073624;28;45307;-66
2023/04/25 06:09:17;;;;;;;1.45;1.10;;;15.20;52.90;;;;;;5073725;28;45340;-68
2023/04/25 06:11:44;;;;;;;1.05;0.98;;;15.20;53.00;;;;;;5073923;28;45302;-67
2023/04/25 06:14:12;;;;;;;1.20;1.00;;;15.20;53.00;;;;;;5074447;28;45494;-66
2023/04/25 06:16:39;;;;;;;1.20;1.10;;;15.20;53.00;;;;;;5074641;28;45217;-71
2023/04/25 06:19:06;;;;;;;1.45;0.95;;;15.20;53.10;;;;;;5075161;28;45312;-66
2023/04/25 06:21:33;;;;;;;1.45;1.00;;;15.20;53.10;;;;;;5074624;28;45408;-66
2023/04/25 06:24:00;;;;;;;1.00;0.90;;;15.20;53.20;;;;;;5074242;28;45493;-66
2023/04/25 06:26:26;;;;;;;0.80;0.80;;;15.10;53.20;;;;;;5073505;28;45230;-66
2023/04/25 06:28:53;;;;;;;1.00;0.90;;;15.20;53.20;;;;;;5072745;28;45345;-66
2023/04/25 06:31:21;;;;;;;1.00;1.00;;;15.10;53.20;;;;;;5072302;28;45167;-67
2023/04/25 06:33:49;;;;;;;1.80;1.00;;;15.10;53.10;;;;;;5071715;28;46456;-75
2023/04/25 06:36:15;;;;;;;1.15;1.05;;;15.10;53.20;;;;;;5072723;28;45456;-70
2023/04/25 06:38:42;;;;;;;2.28;1.10;;;15.10;53.10;;;;;;5069588;28;45194;-66
2023/04/25 06:41:09;;;;;;;1.05;0.98;;;15.10;53.20;;;;;;5066882;28;45461;-66
2023/04/25 06:43:36;;;;;;;0.95;0.95;;;15.10;53.20;;;;;;5066696;28;46594;-66
2023/04/25 06:46:03;;;;;;;1.60;1.02;;;15.10;53.20;;;;;;5066649;28;45401;-66
2023/04/25 06:48:31;;;;;;;0.80;0.80;;;15.10;53.20;;;;;;5067556;28;45320;-66
2023/04/25 06:50:58;;;;;;;1.20;1.10;;;15.10;53.30;;;;;;5067077;28;45324;-67
2023/04/25 06:53:25;;;;;;;1.75;0.82;;;15.10;53.30;;;;;;5066977;28;46284;-66
2023/04/25 06:55:52;;;;;;;0.85;0.80;;;15.10;53.40;;;;;;5066449;28;45365;-67
2023/04/25 06:58:18;;;;;;;1.20;1.10;;;15.10;53.30;;;;;;5066425;28;45397;-67
2023/04/25 07:00:45;;;;;;;1.42;1.00;;;15.10;53.40;;;;;;5066575;28;45420;-67
2023/04/25 07:03:12;;;;;;;1.10;1.00;;;15.10;53.40;;;;;;5066306;28;45273;-67
2023/04/25 07:05:40;;;;;;;0.80;0.80;;;15.10;53.40;;;;;;5066504;28;45301;-66
2023/04/25 07:08:07;;;;;;;0.95;0.90;;;15.10;53.40;;;;;;5066421;28;45428;-66
2023/04/25 07:10:34;;;;;;;1.35;0.95;;;15.10;53.40;;;;;;5066207;28;45382;-66
2023/04/25 07:13:01;;;;;;;0.88;0.88;;;15.10;53.50;;;;;;5066010;28;46543;-72
2023/04/25 07:15:28;;;;;;;1.00;1.00;;;15.10;53.50;;;;;;5066332;28;45194;-66
2023/04/25 07:17:55;;;;;;;1.63;0.90;;;15.10;53.60;;;;;;5057010;28;45206;-66
2023/04/25 07:20:22;;;;;;;0.98;0.95;;;15.10;53.60;;;;;;5064826;28;45408;-67
2023/04/25 07:22:50;;;;;;;1.33;0.90;;;15.10;53.60;;;;;;5064759;28;46639;-67
2023/04/25 07:25:17;;;;;;;0.93;0.93;;;15.00;53.60;;;;;;5063894;28;45246;-67
2023/04/25 07:27:44;;;;;;;0.80;0.70;;;15.10;53.60;;;;;;5063745;28;45282;-67
2023/04/25 07:30:12;;;;;;;1.25;0.80;;;15.10;53.70;;;;;;5064828;28;45400;-67
2023/04/25 07:32:39;;;;;;;1.00;0.90;;;15.10;53.70;;;;;;5064020;28;45472;-67
2023/04/25 07:35:07;;;;;;;0.93;0.93;;;15.10;53.70;;;;;;5064892;28;45491;-67
2023/04/25 07:37:34;;;;;;;2.40;0.90;;;15.10;53.70;;;;;;5063962;28;45349;-67
2023/04/25 07:40:03;;;;;;;1.08;1.00;;;15.10;53.70;;;;;;5063828;28;45282;-67
2023/04/25 07:42:30;;;;;;;1.20;0.73;;;15.10;53.70;;;;;;5064447;28;45750;-67
2023/04/25 07:44:57;;;;;;;3.05;0.90;;;15.10;53.80;;;;;;5064622;28;45392;-67
2023/04/25 07:47:24;;;;;;;0.70;0.70;;;15.00;53.80;;;;;;5064090;28;45281;-66
2023/04/25 07:49:51;;;;;;;1.20;0.77;;;15.10;53.90;;;;;;5064497;28;45514;-67
2023/04/25 07:52:18;;;;;;;0.70;0.70;;;15.10;53.90;;;;;;5064480;28;46548;-67
2023/04/25 07:54:45;;;;;;;0.73;0.73;;;15.10;53.90;;;;;;5064315;28;45483;-67
2023/04/25 07:57:13;;;;;;;1.30;0.70;;;15.10;53.90;;;;;;5063713;28;45419;-67
2023/04/25 07:59:40;;;;;;;0.75;0.75;;;15.10;53.90;;;;;;5063835;28;45563;-67
2023/04/25 08:02:07;;;;;;;2.15;1.08;;;15.10;53.90;;;;;;5063526;28;45528;-67
2023/04/25 08:04:34;;;;;;;0.85;0.85;;;15.10;53.80;;;;;;5064252;28;45408;-67
2023/04/25 08:07:01;;;;;;;0.70;0.70;;;15.10;53.80;;;;;;5063944;28;45459;-68
2023/04/25 08:09:29;;;;;;;0.88;0.85;;;15.10;54.00;;;;;;5063335;28;45397;-67
2023/04/25 08:11:55;;;;;;;1.48;0.90;;;15.10;54.90;;;;;;5063382;28;46647;-68
2023/04/25 08:14:24;;;;;;;2.22;1.17;;;15.10;55.40;;;;;;5044096;28;45304;-68
2023/04/25 08:16:51;;;;;;;0.80;0.80;;;15.10;55.00;;;;;;5043855;28;45314;-66
2023/04/25 08:19:17;;;;;;;1.88;0.93;;;15.10;54.80;;;;;;5060716;28;45645;-68
2023/04/25 08:21:44;;;;;;;1.42;0.85;;;15.10;54.60;;;;;;5063219;28;45317;-67
2023/04/25 08:24:11;;;;;;;0.88;0.88;;;15.10;54.60;;;;;;5051609;28;45400;-71
2023/04/25 08:26:39;;;;;;;2.85;1.08;;;15.10;54.60;;;;;;5043854;28;45417;-67
2023/04/25 08:29:06;;;;;;;1.35;0.77;;;15.10;54.70;;;;;;5044431;28;45389;-67
2023/04/25 08:31:34;;;;;;;1.33;0.80;;;15.10;54.60;;;;;;5042764;28;47892;-68
2023/04/25 08:34:01;;;;;;;1.05;0.80;;;15.10;55.00;;;;;;5043597;28;45249;-67
2023/04/25 08:36:28;;;;;;;1.05;0.90;;;15.10;54.40;;;;;;5044180;28;45246;-67
2023/04/25 08:38:55;;;;;;;1.15;1.00;;;15.10;54.50;;;;;;5043415;28;45559;-67
2023/04/25 08:41:23;;;;;;;2.15;0.77;;;15.10;54.50;;;;;;5043378;28;45574;-68
2023/04/25 08:43:49;;;;;;;0.80;0.80;;;15.10;54.40;;;;;;5043793;28;45423;-67
2023/04/25 08:46:18;;;;;;;1.17;0.80;;;15.10;54.50;;;;;;5043300;28;45373;-67
2023/04/25 08:48:46;;;;;;;0.98;0.80;;;15.10;54.50;;;;;;5045170;28;45477;-69
2023/04/25 08:51:16;;;;;;;1.08;0.70;;;15.10;54.50;;;;;;5043420;28;45556;-68
2023/04/25 08:53:43;;;;;;;0.80;0.80;;;15.10;54.50;;;;;;5044187;28;45282;-68
2023/04/25 08:56:10;;;;;;;0.90;0.90;;;15.10;54.50;;;;;;5054314;28;45439;-74
2023/04/25 08:58:38;;;;;;;1.58;0.90;;;15.10;54.50;;;;;;5044965;28;45548;-67
2023/04/25 09:01:05;;;;;;;1.10;1.00;;;15.10;54.50;;;;;;5042896;28;46457;-67
2023/04/25 09:03:31;;;;;;;1.10;0.80;;;15.10;54.50;;;;;;5044017;28;45329;-68
2023/04/25 09:06:00;;;;;;;0.70;0.70;;;15.10;54.50;;;;;;5043960;28;45608;-68
2023/04/25 09:08:26;;;;;;;6.82;0.98;;;15.10;54.60;;;;;;5044364;28;44841;-68
2023/04/25 09:10:53;;;;;;;1.05;0.85;;;15.10;54.60;;;;;;5047129;28;45452;-67
2023/04/25 09:13:25;;;;;;;2.83;0.80;;;15.00;54.60;;;;;;5047296;28;45289;-67
2023/04/25 09:15:53;;;;;;;0.80;0.75;;;15.10;54.50;;;;;;5046700;28;45509;-67
2023/04/25 09:18:26;;;;;;;2.50;1.15;;;15.10;54.50;;;;;;5047802;28;45323;-67
2023/04/25 09:20:54;;;;;;;1.58;1.00;;;15.10;54.50;;;;;;5047283;28;45484;-69
2023/04/25 09:23:22;;;;;;;1.10;0.82;;;15.10;54.50;;;;;;5046663;28;45392;-66
2023/04/25 09:25:49;;;;;;;1.83;0.73;;;15.10;54.40;;;;;;5046671;28;45477;-67
2023/04/25 09:28:16;;;;;;;2.15;0.68;;;15.10;54.50;;;;;;5047141;28;45401;-67
2023/04/25 09:30:43;;;;;;;0.75;0.75;;;15.10;54.50;;;;;;5046366;28;45423;-67
2023/04/25 09:33:10;;;;;;;0.88;0.88;;;15.10;54.50;;;;;;5047355;28;45322;-68
2023/04/25 09:35:38;;;;;;;1.25;0.90;;;15.10;54.30;;;;;;5047307;28;45283;-67
2023/04/25 09:38:10;;;;;;;1.05;0.70;;;15.20;54.30;;;;;;5045874;28;45660;-68
2023/04/25 09:40:41;;;;;;;0.75;0.60;;;15.20;54.30;;;;;;5047117;28;47533;-67
2023/04/25 09:43:12;;;;;;;0.80;0.68;;;15.20;54.10;;;;;;5047307;28;45366;-67
2023/04/25 09:45:45;;;;;;;0.88;0.80;;;15.20;54.00;;;;;;5046247;28;45527;-69
2023/04/25 09:48:12;;;;;;;0.75;0.70;;;15.30;54.00;;;;;;5056532;28;45729;-68
2023/04/25 09:50:40;;;;;;;1.35;0.80;;;15.30;53.90;;;;;;5068834;28;45608;-68
2023/04/25 09:53:07;;;;;;;0.80;0.80;;;15.30;53.80;;;;;;5056539;28;45548;-69
2023/04/25 09:55:34;;;;;;;0.75;0.75;;;15.40;53.80;;;;;;5066005;28;45285;-67
2023/04/25 09:58:05;;;;;;;0.95;0.90;;;15.40;53.60;;;;;;5066474;28;45339;-67
2023/04/25 10:00:32;;;;;;;0.63;0.60;;;15.40;53.60;;;;;;5051290;28;45566;-68
2023/04/25 10:02:59;;;;;;;3.33;0.93;;;15.40;53.50;;;;;;5056505;28;45451;-67
2023/04/25 10:05:26;;;;;;;1.35;0.73;;;15.40;53.50;;;;;;5067328;28;45324;-67
2023/04/25 10:07:53;;;;;;;0.75;0.73;;;15.50;53.60;;;;;;5066708;28;45459;-66
2023/04/25 10:10:25;;;;;;;0.82;0.70;;;15.40;53.60;;;;;;5065677;28;45589;-67
2023/04/25 10:12:52;;;;;;;1.48;0.70;;;15.40;53.70;;;;;;5066160;28;45312;-67
2023/04/25 10:15:20;;;;;;;0.63;0.60;;;15.50;53.70;;;;;;5066275;28;45369;-67
2023/04/25 10:17:47;;;;;;;0.73;0.73;;;15.50;53.70;;;;;;5066743;28;45382;-66
2023/04/25 10:20:14;;;;;;;1.88;0.60;;;15.50;53.60;;;;;;5065668;28;47345;-68
2023/04/25 10:22:42;;;;;;;2.45;0.90;;;15.60;53.60;;;;;;5064799;28;45334;-66
2023/04/25 10:25:09;;;;;;;0.60;0.60;;;15.60;53.60;;;;;;5066413;28;45673;-67
2023/04/25 10:27:36;;;;;;;0.90;0.90;;;15.60;53.50;;;;;;5071435;28;45387;-67
2023/04/25 10:30:04;;;;;;;0.85;0.80;;;15.70;53.60;;;;;;5064839;28;45620;-66
2023/04/25 10:32:33;;;;;;;0.82;0.80;;;15.70;53.50;;;;;;5065055;28;45392;-66
2023/04/25 10:35:13;;;;;;;1.60;0.90;;;15.70;53.40;;;;;;5066185;28;45376;-68
2023/04/25 10:37:56;;;;;;;1.15;0.80;;;15.80;53.60;;;;;;5045357;28;45357;-67
2023/04/25 10:40:23;;;;;;;1.13;0.98;;;15.80;53.50;;;;;;5045637;28;45510;-66
2023/04/25 10:42:50;;;;;;;2.05;0.73;;;15.70;53.60;;;;;;5044772;28;45331;-67
2023/04/25 10:45:17;;;;;;;0.88;0.88;;;15.80;53.70;;;;;;5046823;28;45331;-67
2023/04/25 10:47:46;;;;;;;1.08;1.05;;;15.80;53.80;;;;;;5066608;28;45655;-69
2023/04/25 10:50:14;;;;;;;1.08;0.82;;;15.80;53.90;;;;;;5067121;28;45439;-67
2023/04/25 10:52:41;;;;;;;2.58;0.90;;;15.80;53.90;;;;;;5066737;28;45344;-67
2023/04/25 10:55:09;;;;;;;1.83;1.00;;;15.80;54.00;;;;;;5068411;28;45283;-68
2023/04/25 10:57:40;;;;;;;1.48;0.95;;;15.80;53.90;;;;;;5067163;28;45482;-67
2023/04/25 11:00:09;;;;;;;1.27;0.95;;;15.80;53.80;;;;;;5064108;28;47306;-68
2023/04/25 11:02:38;;;;;;;2.05;1.00;;;15.90;53.90;;;;;;5066372;28;45514;-67
2023/04/25 11:05:08;;;;;;;2.03;0.90;;;15.90;53.90;;;;;;5066679;28;45573;-67
2023/04/25 11:07:46;;;;;;;0.70;0.70;;;15.90;53.90;;;;;;5066408;28;45261;-67
2023/04/25 11:10:13;;;;;;;0.88;0.88;;;15.90;54.00;;;;;;5066141;28;45472;-67
2023/04/25 11:12:40;;;;;;;1.63;0.73;;;15.90;54.10;;;;;;5066259;28;45352;-67
2023/04/25 11:15:08;;;;;;;1.45;0.70;;;16.00;53.90;;;;;;5066576;28;45316;-67
2023/04/25 11:17:35;;;;;;;2.38;0.80;;;16.10;53.90;;;;;;5066554;28;45198;-67
2023/04/25 11:20:06;;;;;;;0.68;0.68;;;16.10;53.70;;;;;;5066043;28;46609;-67
2023/04/25 11:22:34;;;;;;;0.70;0.70;;;16.20;53.60;;;;;;5066066;28;45325;-67
2023/04/25 11:25:06;;;;;;;2.05;0.82;;;16.30;53.50;;;;;;5066431;28;45366;-67
2023/04/25 11:27:32;;;;;;;1.83;0.75;;;16.30;53.30;;;;;;5079407;28;45265;-67
2023/04/25 11:29:59;;;;;;;2.00;0.82;;;16.30;53.30;;;;;;5085905;28;46242;-67
2023/04/25 11:32:26;;;;;;;0.80;0.80;;;16.30;53.30;;;;;;5085168;27;45364;-67
2023/04/25 11:34:53;;;;;;;1.05;0.80;;;16.30;53.40;;;;;;5086460;28;45348;-67
2023/04/25 11:37:20;;;;;;;1.45;0.90;;;16.20;53.50;;;;;;5086329;28;45397;-67
2023/04/25 11:39:49;;;;;;;0.88;0.80;;;16.20;53.70;;;;;;5085825;28;46337;-67
2023/04/25 11:42:15;;;;;;;0.45;0.45;;;16.20;53.70;;;;;;5086106;28;45352;-67
2023/04/25 11:44:44;;;;;;;0.75;0.75;;;16.20;53.90;;;;;;5085737;28;45349;-67
2023/04/25 11:47:11;;;;;;;0.70;0.68;;;16.10;53.90;;;;;;5086124;28;45562;-67
2023/04/25 11:49:38;;;;;;;4.13;0.80;;;16.10;54.00;;;;;;5085607;28;45391;-67
2023/04/25 11:52:07;;;;;;;0.70;0.63;;;16.10;54.10;;;;;;5085701;28;45323;-67
2023/04/25 11:54:36;;;;;;;1.40;0.93;;;16.10;54.20;;;;;;5085918;28;45368;-67
2023/04/25 11:57:04;;;;;;;1.95;1.13;;;16.10;54.20;;;;;;5086049;28;45323;-67
2023/04/25 11:59:31;;;;;;;0.70;0.70;;;16.10;54.10;;;;;;5085626;28;45392;-67
2023/04/25 12:01:59;;;;;;;3.80;0.82;;;16.10;54.20;;;;;;5085626;28;45460;-66
2023/04/25 12:04:26;;;;;;;1.48;0.88;;;16.10;54.20;;;;;;5086110;28;45419;-66
2023/04/25 12:06:53;;;;;;;0.73;0.60;;;16.20;54.30;;;;;;5085783;28;45436;-67
2023/04/25 12:09:21;;;;;;;1.33;0.75;;;16.40;53.90;;;;;;5085253;28;46667;-67
2023/04/25 12:11:48;;;;;;;1.00;1.00;;;16.50;53.50;;;;;;5085394;28;45358;-67
2023/04/25 12:14:23;;;;;;;1.10;0.80;;;16.60;53.20;;;;;;5085507;28;45462;-67
2023/04/25 12:16:51;;;;;;;1.23;0.90;;;16.70;52.90;;;;;;5085780;28;45393;-67
2023/04/25 12:19:18;;;;;;;0.80;0.80;;;16.80;52.70;;;;;;5085277;28;45340;-67
2023/04/25 12:21:44;;;;;;;1.02;0.75;;;16.90;52.50;;;;;;5085344;28;45254;-67
2023/04/25 12:24:14;;;;;;;0.68;0.63;;;17.00;52.40;;;;;;5085394;28;45419;-67
2023/04/25 12:26:48;;;;;;;2.33;1.00;;;17.10;52.20;;;;;;5085234;28;45578;-67
2023/04/25 12:29:17;;;;;;;0.70;0.70;;;17.20;51.90;;;;;;5085019;28;45576;-67
2023/04/25 12:31:46;;;;;;;1.35;0.75;;;17.20;51.90;;;;;;5085042;28;45327;-67
2023/04/25 12:34:13;;;;;;;1.52;0.82;;;17.10;52.00;;;;;;5085319;28;45463;-66
2023/04/25 12:36:40;;;;;;;1.17;0.90;;;17.10;52.00;;;;;;5085607;28;45363;-66
2023/04/25 12:39:07;;;;;;;1.70;0.85;;;17.10;52.40;;;;;;5084844;28;46913;-66
2023/04/25 12:41:34;;;;;;;0.85;0.85;;;17.10;52.20;;;;;;5085001;28;45337;-67
2023/04/25 12:44:01;;;;;;;3.22;0.85;;;17.20;52.20;;;;;;5088327;28;45552;-66
2023/04/25 12:46:28;;;;;;;0.82;0.80;;;17.30;52.10;;;;;;5088875;28;45404;-67
2023/04/25 12:48:57;;;;;;;1.30;1.05;;;17.30;52.10;;;;;;5088469;28;45649;-66